Time;durP1;ratioP1;P1;durP2;ratioP2;P2;SDS_P1;SDS_P2;PMS_P1;PMS_P2;Temp;Humidity;BMP_temperature;BMP_pressure;BME280_temperature;BME280_humidity;BME280_pressure;Samples;Min_cycle;Max_cycle;Signal;HPM_P1;HPM_P2
2022/11/08 00:01:35;;;;;;;8.38;2.00;;;12.90;99.90;;;;;;5003793;28;20107;-71
2022/11/08 00:04:05;;;;;;;8.18;2.25;;;12.90;99.90;;;;;;4980384;28;20164;-70
2022/11/08 00:14:45;;;;;;;7.53;2.53;;;12.90;99.90;;;;;;5011440;28;20061;-71
2022/11/08 00:17:15;;;;;;;10.23;2.10;;;12.90;99.90;;;;;;4995820;28;20080;-71
2022/11/08 00:19:41;;;;;;;10.57;2.00;;;12.90;99.90;;;;;;5023862;28;20057;-71
2022/11/08 00:22:07;;;;;;;8.80;2.47;;;12.80;99.90;;;;;;5030160;28;20379;-71
2022/11/08 00:24:36;;;;;;;10.65;2.60;;;12.80;99.90;;;;;;5006338;28;20050;-71
2022/11/08 00:27:06;;;;;;;10.15;2.17;;;12.80;99.90;;;;;;5013133;28;20384;-70
2022/11/08 00:29:35;;;;;;;9.50;2.58;;;12.80;99.90;;;;;;4993049;28;20065;-71
2022/11/08 00:32:06;;;;;;;7.95;2.40;;;12.80;99.90;;;;;;5025495;28;20041;-70
2022/11/08 00:34:32;;;;;;;11.25;2.70;;;12.80;99.90;;;;;;5010696;28;20061;-70
2022/11/08 00:36:57;;;;;;;8.65;2.15;;;12.80;99.90;;;;;;5042289;28;20465;-70
2022/11/08 00:39:23;;;;;;;7.60;2.47;;;12.80;99.90;;;;;;5028816;28;20141;-72
2022/11/08 00:41:49;;;;;;;8.43;2.42;;;12.80;99.90;;;;;;5009169;28;20531;-70
2022/11/08 00:44:14;;;;;;;8.15;2.30;;;12.70;99.90;;;;;;5012722;28;20054;-71
2022/11/08 00:46:40;;;;;;;13.13;2.80;;;12.70;99.90;;;;;;5014015;28;20081;-71
2022/11/08 00:49:06;;;;;;;12.77;2.80;;;12.70;99.90;;;;;;5026849;28;20460;-71
2022/11/08 00:51:32;;;;;;;7.47;2.47;;;12.60;99.90;;;;;;5032157;28;20132;-71
2022/11/08 00:53:58;;;;;;;9.32;2.40;;;12.60;99.90;;;;;;5011994;28;20049;-71
2022/11/08 00:56:24;;;;;;;12.73;2.67;;;12.60;99.90;;;;;;5011904;28;20058;-70
2022/11/08 00:58:50;;;;;;;8.70;2.10;;;12.60;99.90;;;;;;5012604;28;20046;-71
2022/11/08 01:01:17;;;;;;;7.25;2.75;;;12.50;99.90;;;;;;5012397;28;20054;-70
2022/11/08 01:03:43;;;;;;;9.90;2.33;;;12.50;99.90;;;;;;5011324;28;20045;-71
2022/11/08 01:06:09;;;;;;;9.15;2.55;;;12.50;99.90;;;;;;5012650;28;20103;-71
2022/11/08 01:08:35;;;;;;;8.05;2.28;;;12.50;99.90;;;;;;5012021;28;20457;-71
2022/11/08 01:11:02;;;;;;;9.20;2.15;;;12.40;99.90;;;;;;4996396;28;20060;-71
2022/11/08 01:13:28;;;;;;;10.35;2.58;;;12.40;99.90;;;;;;4991779;28;20085;-71
2022/11/08 01:15:54;;;;;;;7.68;1.98;;;12.40;99.90;;;;;;5025337;28;20078;-71
2022/11/08 01:18:20;;;;;;;10.20;2.28;;;12.40;99.90;;;;;;5022450;28;20050;-71
2022/11/08 01:20:46;;;;;;;11.32;2.42;;;12.40;99.90;;;;;;5006802;28;20543;-71
2022/11/08 01:23:12;;;;;;;10.40;3.22;;;12.30;99.90;;;;;;5003662;28;20062;-71
2022/11/08 01:25:40;;;;;;;7.75;2.20;;;12.30;99.90;;;;;;5025203;28;20653;-71
2022/11/08 01:28:05;;;;;;;9.35;2.38;;;12.30;99.90;;;;;;5008494;28;20062;-71
2022/11/08 01:30:34;;;;;;;8.40;2.53;;;12.30;99.90;;;;;;5012056;28;20423;-70
2022/11/08 01:33:00;;;;;;;7.18;2.15;;;12.20;99.90;;;;;;5007750;28;20057;-71
2022/11/08 01:35:26;;;;;;;8.05;2.28;;;12.20;99.90;;;;;;5008433;28;20054;-71
2022/11/08 01:37:52;;;;;;;8.90;2.55;;;12.20;99.90;;;;;;5009449;28;20045;-71
2022/11/08 01:40:17;;;;;;;8.02;2.00;;;12.20;99.90;;;;;;5028117;28;20072;-69
2022/11/08 01:42:43;;;;;;;11.77;2.22;;;12.20;99.90;;;;;;5011102;28;20050;-70
2022/11/08 01:45:10;;;;;;;7.20;2.00;;;12.20;99.90;;;;;;5011468;28;20554;-70
2022/11/08 01:47:36;;;;;;;6.90;2.38;;;12.20;99.90;;;;;;5011716;28;20049;-70
2022/11/08 01:50:10;;;;;;;10.20;2.50;;;12.20;99.90;;;;;;5026884;28;20129;-70
2022/11/08 01:52:42;;;;;;;7.63;2.03;;;12.20;99.90;;;;;;5011522;28;20042;-71
2022/11/08 01:55:15;;;;;;;9.18;2.45;;;12.20;99.90;;;;;;5011467;28;20046;-71
2022/11/08 01:58:10;;;;;;;6.78;1.90;;;12.20;99.90;;;;;;5011221;28;20042;-70
2022/11/08 02:00:36;;;;;;;9.95;2.00;;;12.20;99.90;;;;;;5006951;28;20560;-70
2022/11/08 02:03:02;;;;;;;10.90;2.72;;;12.20;99.90;;;;;;5008812;28;20392;-70
2022/11/08 02:05:28;;;;;;;6.70;2.20;;;12.10;99.90;;;;;;5022656;28;20112;-71
2022/11/08 02:08:09;;;;;;;10.95;2.65;;;12.10;99.90;;;;;;5023931;28;20121;-70
2022/11/08 02:10:37;;;;;;;11.43;2.28;;;12.10;99.90;;;;;;5010620;28;20045;-71
2022/11/08 02:13:04;;;;;;;9.53;2.27;;;12.20;99.90;;;;;;5011073;28;20045;-70
2022/11/08 02:15:29;;;;;;;7.30;2.58;;;12.20;99.90;;;;;;5011500;28;20065;-70
2022/11/08 02:17:55;;;;;;;5.53;1.90;;;12.20;99.90;;;;;;5010782;28;20050;-70
2022/11/08 02:20:21;;;;;;;7.35;2.00;;;12.10;99.90;;;;;;5024785;28;20045;-70
2022/11/08 02:22:59;;;;;;;10.35;2.13;;;12.10;99.90;;;;;;4994221;28;20041;-71
2022/11/08 02:25:25;;;;;;;8.32;2.20;;;12.10;99.90;;;;;;5026950;28;20101;-70
2022/11/08 02:27:51;;;;;;;7.60;2.20;;;12.10;99.90;;;;;;5009186;28;20046;-71
2022/11/08 02:30:17;;;;;;;7.45;2.20;;;12.10;99.90;;;;;;5010148;28;20045;-71
2022/11/08 02:32:42;;;;;;;9.43;2.50;;;12.10;99.90;;;;;;5009357;28;20146;-71
2022/11/08 02:35:11;;;;;;;7.25;2.05;;;12.00;99.90;;;;;;5010079;28;20057;-70
2022/11/08 02:37:37;;;;;;;7.93;1.90;;;12.00;99.90;;;;;;5024768;28;20054;-70
2022/11/08 02:40:03;;;;;;;9.15;2.42;;;12.00;99.90;;;;;;5009833;28;20053;-71
2022/11/08 02:42:30;;;;;;;5.82;1.67;;;12.00;99.90;;;;;;4993052;28;20084;-70
2022/11/08 02:44:56;;;;;;;7.50;1.65;;;12.00;99.90;;;;;;5003897;28;20103;-71
2022/11/08 02:47:23;;;;;;;7.18;2.03;;;12.00;99.90;;;;;;5010504;28;20460;-70
2022/11/08 02:49:49;;;;;;;8.25;1.80;;;12.00;99.90;;;;;;5009554;28;20049;-71
2022/11/08 02:52:14;;;;;;;9.63;2.13;;;12.00;99.90;;;;;;5026465;28;20042;-71
2022/11/08 02:54:40;;;;;;;6.15;2.05;;;12.00;99.90;;;;;;4992312;28;20057;-71
2022/11/08 02:57:06;;;;;;;7.57;1.80;;;11.90;99.90;;;;;;5008335;28;20045;-71
2022/11/08 02:59:31;;;;;;;11.18;1.88;;;11.90;99.90;;;;;;5008874;28;20060;-71
2022/11/08 03:01:57;;;;;;;7.70;1.77;;;11.90;99.90;;;;;;5010128;28;20049;-72
2022/11/08 03:04:23;;;;;;;6.90;1.73;;;11.90;99.90;;;;;;5009359;28;20460;-72
2022/11/08 03:06:48;;;;;;;8.13;2.55;;;11.90;99.90;;;;;;5009822;28;20061;-72
2022/11/08 03:09:14;;;;;;;9.30;1.77;;;11.90;99.90;;;;;;5009563;28;20057;-71
2022/11/08 03:11:40;;;;;;;5.35;1.83;;;11.90;99.90;;;;;;5009244;28;20550;-71
2022/11/08 03:14:06;;;;;;;10.02;2.28;;;11.90;99.90;;;;;;5004822;28;20524;-71
2022/11/08 03:16:31;;;;;;;7.70;2.30;;;11.90;99.90;;;;;;5023031;28;20041;-71
2022/11/08 03:18:57;;;;;;;8.60;1.98;;;11.90;99.90;;;;;;5008987;28;20054;-71
2022/11/08 03:21:23;;;;;;;7.85;2.33;;;11.90;99.90;;;;;;5006017;28;20046;-71
2022/11/08 03:23:49;;;;;;;8.07;1.75;;;11.90;99.90;;;;;;5025471;28;20482;-71
2022/11/08 03:26:14;;;;;;;11.23;2.13;;;11.80;99.90;;;;;;5011036;28;20050;-70
2022/11/08 03:28:40;;;;;;;11.60;2.63;;;11.80;99.90;;;;;;4986065;28;1133725;-71
2022/11/08 03:31:06;;;;;;;8.23;1.98;;;11.80;99.90;;;;;;4983781;28;20057;-70
2022/11/08 03:33:32;;;;;;;10.05;2.10;;;11.80;99.90;;;;;;5008874;28;20049;-71
2022/11/08 03:35:57;;;;;;;7.72;1.60;;;11.80;99.90;;;;;;5008988;28;20076;-72
2022/11/08 03:38:23;;;;;;;11.38;1.90;;;11.80;99.90;;;;;;5009828;28;20107;-70
2022/11/08 03:40:49;;;;;;;9.48;1.88;;;11.80;99.90;;;;;;5008374;28;20130;-71
2022/11/08 03:43:14;;;;;;;7.07;1.60;;;11.80;99.90;;;;;;4990147;28;20496;-72
2022/11/08 03:45:41;;;;;;;6.25;2.30;;;11.80;99.90;;;;;;5009259;28;20050;-72
2022/11/08 03:48:07;;;;;;;5.15;1.83;;;11.70;99.90;;;;;;5004346;28;20559;-71
2022/11/08 03:50:33;;;;;;;6.03;1.75;;;11.70;99.90;;;;;;5021268;28;20125;-72
2022/11/08 03:52:59;;;;;;;6.53;1.73;;;11.70;99.90;;;;;;5025514;28;20046;-71
2022/11/08 03:55:25;;;;;;;9.40;1.95;;;11.60;99.90;;;;;;5009881;28;20672;-71
2022/11/08 03:57:51;;;;;;;7.53;1.92;;;11.60;99.90;;;;;;4992507;28;20057;-73
2022/11/08 04:00:21;;;;;;;4.90;1.40;;;11.60;99.90;;;;;;5026189;28;20042;-71
2022/11/08 04:02:47;;;;;;;6.43;1.65;;;11.60;99.90;;;;;;5009109;28;20042;-71
2022/11/08 04:05:13;;;;;;;6.07;1.80;;;11.50;99.90;;;;;;4992611;28;20061;-72
2022/11/08 04:07:39;;;;;;;6.75;1.50;;;11.50;99.90;;;;;;5005086;28;20047;-71
2022/11/08 04:10:05;;;;;;;7.18;1.60;;;11.40;99.90;;;;;;5013071;28;20050;-72
2022/11/08 04:15:18;;;;;;;7.68;2.10;;;11.40;99.90;;;;;;5005217;28;20690;-72
2022/11/08 04:23:14;;;;;;;9.07;2.33;;;11.40;99.90;;;;;;5005295;28;20060;-71
2022/11/08 04:25:39;;;;;;;9.52;2.20;;;11.30;99.90;;;;;;5020308;28;20070;-71
2022/11/08 04:28:05;;;;;;;11.27;2.22;;;11.40;99.90;;;;;;4991289;28;20411;-72
2022/11/08 04:30:31;;;;;;;11.23;2.65;;;11.30;99.90;;;;;;5007931;28;20131;-72
2022/11/08 04:33:01;;;;;;;10.77;2.10;;;11.30;99.90;;;;;;5012972;28;20046;-72
2022/11/08 04:35:27;;;;;;;12.05;2.28;;;11.30;99.90;;;;;;5025567;28;20137;-72
2022/11/08 04:37:59;;;;;;;7.82;2.22;;;11.30;99.90;;;;;;5009455;28;20037;-71
2022/11/08 04:40:25;;;;;;;9.18;2.30;;;11.30;99.90;;;;;;4980056;28;20133;-71
2022/11/08 04:42:51;;;;;;;6.72;1.80;;;11.30;99.90;;;;;;4980330;28;20042;-71
2022/11/08 04:45:17;;;;;;;9.75;2.65;;;11.30;99.90;;;;;;5012172;28;20104;-71
2022/11/08 04:47:46;;;;;;;8.85;2.00;;;11.30;99.90;;;;;;5025310;28;20042;-72
2022/11/08 04:50:12;;;;;;;5.22;1.70;;;11.30;99.90;;;;;;4996634;28;20452;-71
2022/11/08 04:52:38;;;;;;;7.82;2.03;;;11.20;99.90;;;;;;5012553;28;20042;-71
2022/11/08 04:55:04;;;;;;;5.10;1.80;;;11.10;99.90;;;;;;5012218;28;20056;-72
2022/11/08 04:57:30;;;;;;;7.80;1.70;;;11.10;99.90;;;;;;5025484;28;20042;-72
2022/11/08 04:59:55;;;;;;;7.07;2.80;;;11.10;99.90;;;;;;5011790;28;20494;-71
2022/11/08 05:02:21;;;;;;;5.80;1.90;;;11.00;99.90;;;;;;5008850;28;20046;-71
2022/11/08 05:04:47;;;;;;;8.40;2.10;;;11.00;99.90;;;;;;5025587;28;20558;-71
2022/11/08 05:07:12;;;;;;;5.65;2.08;;;11.00;99.90;;;;;;4991167;28;20078;-72
2022/11/08 05:09:38;;;;;;;7.95;1.90;;;11.00;99.90;;;;;;5026324;28;20313;-71
2022/11/08 05:12:04;;;;;;;7.15;2.10;;;11.00;99.90;;;;;;5005935;28;20049;-71
2022/11/08 05:14:30;;;;;;;6.43;1.85;;;11.00;99.90;;;;;;4995347;28;20103;-72
2022/11/08 05:16:55;;;;;;;6.28;2.60;;;11.00;99.90;;;;;;5027840;28;20115;-72
2022/11/08 05:24:51;;;;;;;8.23;2.42;;;10.90;99.90;;;;;;5011813;28;20049;-72
2022/11/08 05:27:17;;;;;;;5.57;1.90;;;10.90;99.90;;;;;;5008486;28;20042;-71
2022/11/08 05:29:42;;;;;;;7.90;2.30;;;10.80;99.90;;;;;;5012182;28;20216;-72
2022/11/08 05:32:08;;;;;;;8.85;2.30;;;10.90;99.90;;;;;;5011335;28;20111;-71
2022/11/08 05:34:34;;;;;;;8.45;2.28;;;10.90;99.90;;;;;;5025166;28;20615;-72
2022/11/08 05:37:00;;;;;;;9.50;2.22;;;10.90;99.90;;;;;;5011742;28;20056;-71
2022/11/08 05:39:25;;;;;;;7.95;2.10;;;10.90;99.90;;;;;;5009060;28;20058;-70
2022/11/08 05:41:51;;;;;;;6.63;2.65;;;10.90;99.90;;;;;;4991435;28;20061;-71
2022/11/08 05:44:17;;;;;;;4.47;1.90;;;10.90;99.90;;;;;;5010690;28;20046;-71
2022/11/08 05:46:42;;;;;;;7.93;2.40;;;10.90;99.90;;;;;;5010943;28;20050;-71
2022/11/08 05:49:08;;;;;;;6.85;2.33;;;10.90;99.90;;;;;;5011459;28;20042;-70
2022/11/08 05:51:34;;;;;;;8.50;2.38;;;10.90;99.90;;;;;;5010000;28;20042;-71
2022/11/08 05:53:59;;;;;;;6.13;2.42;;;10.90;99.90;;;;;;5011776;28;20049;-72
2022/11/08 05:56:25;;;;;;;8.73;2.10;;;10.80;99.90;;;;;;5011490;28;20046;-70
2022/11/08 05:58:51;;;;;;;8.02;2.22;;;10.80;99.90;;;;;;5024918;28;20184;-71
2022/11/08 06:01:17;;;;;;;8.02;2.40;;;10.80;99.90;;;;;;5017494;28;20371;-71
2022/11/08 06:03:43;;;;;;;9.43;2.35;;;10.70;99.90;;;;;;4995127;28;20056;-71
2022/11/08 06:06:13;;;;;;;6.55;2.50;;;10.60;99.90;;;;;;5011175;28;20050;-71
2022/11/08 06:08:39;;;;;;;6.95;2.65;;;10.60;99.90;;;;;;5026686;28;20620;-71
2022/11/08 06:11:06;;;;;;;6.15;2.60;;;10.60;99.90;;;;;;5027182;28;20136;-71
2022/11/08 06:13:32;;;;;;;9.48;2.83;;;10.50;99.90;;;;;;5011292;28;20050;-71
2022/11/08 06:16:02;;;;;;;11.15;2.90;;;10.50;99.90;;;;;;5023754;28;20054;-71
2022/11/08 06:18:28;;;;;;;10.30;2.35;;;10.50;99.90;;;;;;5024377;28;20124;-71
2022/11/08 06:20:56;;;;;;;9.38;2.40;;;10.40;99.90;;;;;;5027115;28;20372;-71
2022/11/08 06:23:21;;;;;;;8.48;2.70;;;10.40;99.90;;;;;;5025464;28;20046;-71
2022/11/08 06:25:47;;;;;;;6.72;2.60;;;10.40;99.90;;;;;;5039644;28;20046;-70
2022/11/08 06:28:13;;;;;;;10.35;2.30;;;10.40;99.90;;;;;;5009781;28;20116;-71
2022/11/08 06:30:39;;;;;;;8.18;3.10;;;10.40;99.90;;;;;;5006833;28;20372;-72
2022/11/08 06:33:05;;;;;;;11.27;2.50;;;10.40;99.90;;;;;;4994469;28;20162;-71
2022/11/08 06:35:31;;;;;;;8.32;2.58;;;10.40;99.90;;;;;;5024861;28;20186;-70
2022/11/08 06:37:56;;;;;;;8.90;2.72;;;10.40;99.90;;;;;;5024441;28;20080;-71
2022/11/08 06:40:22;;;;;;;11.18;2.78;;;10.30;99.90;;;;;;5010254;28;20049;-70
2022/11/08 06:42:48;;;;;;;7.55;2.53;;;10.30;99.90;;;;;;5026112;28;20057;-70
2022/11/08 06:45:13;;;;;;;7.47;2.60;;;10.30;99.90;;;;;;5025928;28;20049;-71
2022/11/08 06:47:39;;;;;;;8.25;3.03;;;10.30;99.90;;;;;;5013252;28;20050;-70
2022/11/08 06:50:05;;;;;;;8.20;2.45;;;10.30;99.90;;;;;;5009542;28;20050;-70
2022/11/08 06:52:31;;;;;;;12.65;2.92;;;10.30;99.90;;;;;;5024402;28;20128;-70
2022/11/08 06:54:57;;;;;;;11.07;3.67;;;10.20;99.90;;;;;;5025765;28;20125;-72
2022/11/08 06:57:23;;;;;;;8.43;2.78;;;10.10;99.90;;;;;;5010706;28;20045;-70
2022/11/08 06:59:48;;;;;;;5.75;2.60;;;10.20;99.90;;;;;;4994051;28;20553;-71
2022/11/08 07:02:14;;;;;;;10.05;3.28;;;10.20;99.90;;;;;;5009632;28;20054;-72
2022/11/08 07:04:40;;;;;;;11.00;3.15;;;10.20;99.90;;;;;;5010769;28;20050;-72
2022/11/08 07:07:05;;;;;;;7.85;2.85;;;10.30;99.90;;;;;;5008884;28;20042;-72
2022/11/08 07:09:31;;;;;;;7.97;4.20;;;10.30;99.90;;;;;;4990865;28;20111;-72
2022/11/08 07:11:57;;;;;;;13.18;3.80;;;10.30;99.90;;;;;;5030505;28;20159;-72
2022/11/08 07:14:22;;;;;;;7.07;2.80;;;10.40;99.90;;;;;;5003811;28;20765;-72
2022/11/08 07:16:48;;;;;;;8.30;2.88;;;10.40;99.90;;;;;;5033102;28;20042;-72
2022/11/08 07:19:14;;;;;;;9.68;2.65;;;10.40;99.90;;;;;;5043078;28;20042;-73
2022/11/08 07:21:40;;;;;;;8.18;2.63;;;10.50;99.90;;;;;;5006020;28;20743;-73
2022/11/08 07:24:06;;;;;;;6.45;2.38;;;10.50;99.90;;;;;;5008302;28;20058;-73
2022/11/08 07:26:31;;;;;;;11.73;3.08;;;10.60;99.90;;;;;;5022639;28;20049;-72
2022/11/08 07:28:57;;;;;;;11.07;2.50;;;10.60;99.90;;;;;;5010392;28;20067;-72
2022/11/08 07:31:23;;;;;;;9.93;2.85;;;10.60;99.90;;;;;;5008690;28;20042;-73
2022/11/08 07:33:49;;;;;;;9.52;2.72;;;10.60;99.90;;;;;;5011351;28;20084;-73
2022/11/08 07:36:14;;;;;;;7.65;2.65;;;10.70;99.90;;;;;;4993150;28;20053;-72
2022/11/08 07:38:40;;;;;;;6.10;2.35;;;10.70;99.90;;;;;;5025239;28;20050;-72
2022/11/08 07:41:07;;;;;;;11.05;3.25;;;10.70;99.90;;;;;;5009702;28;20050;-72
2022/11/08 07:43:33;;;;;;;8.93;2.30;;;10.70;99.90;;;;;;5007000;28;20427;-73
2022/11/08 07:46:00;;;;;;;8.73;2.97;;;10.70;99.90;;;;;;5009431;28;20074;-72
2022/11/08 07:48:26;;;;;;;8.02;2.58;;;10.70;99.90;;;;;;5010032;28;20367;-72
2022/11/08 07:50:52;;;;;;;10.00;2.28;;;10.80;99.90;;;;;;5006836;28;20134;-72
2022/11/08 07:53:18;;;;;;;6.00;2.55;;;10.80;99.90;;;;;;5010152;28;20132;-72
2022/11/08 07:55:44;;;;;;;11.13;2.67;;;10.90;99.90;;;;;;5024780;28;20104;-72
2022/11/08 07:58:10;;;;;;;9.02;2.40;;;11.00;99.90;;;;;;5025465;28;20053;-72
2022/11/08 08:00:37;;;;;;;6.75;2.00;;;11.00;99.90;;;;;;5025828;28;20112;-74
2022/11/08 08:03:03;;;;;;;10.63;2.78;;;11.10;99.90;;;;;;5009484;28;20050;-72
2022/11/08 08:05:32;;;;;;;7.53;2.08;;;11.10;99.90;;;;;;4994138;28;20119;-72
2022/11/08 08:07:58;;;;;;;8.55;2.25;;;11.20;99.90;;;;;;5028814;28;20056;-72
2022/11/08 08:10:24;;;;;;;9.65;2.55;;;11.30;99.90;;;;;;5013690;28;20061;-72
2022/11/08 08:12:50;;;;;;;6.47;2.22;;;11.40;99.90;;;;;;5012501;28;20103;-72
2022/11/08 08:15:16;;;;;;;6.03;2.28;;;11.40;99.90;;;;;;5025890;28;20062;-72
2022/11/08 08:17:41;;;;;;;9.65;2.35;;;11.40;99.90;;;;;;4960458;28;20054;-72
2022/11/08 08:20:08;;;;;;;6.93;1.98;;;11.50;99.90;;;;;;5010786;28;20482;-73
2022/11/08 08:22:33;;;;;;;11.63;2.03;;;11.50;99.90;;;;;;5011696;28;20065;-74
2022/11/08 08:24:59;;;;;;;6.90;2.55;;;11.50;99.90;;;;;;5029544;28;20479;-74
2022/11/08 08:27:25;;;;;;;6.53;1.80;;;11.60;99.90;;;;;;5011735;28;20107;-74
2022/11/08 08:29:50;;;;;;;8.90;2.15;;;11.70;99.90;;;;;;5027721;28;20058;-72
2022/11/08 08:32:16;;;;;;;4.18;1.58;;;11.70;99.90;;;;;;4995706;28;20353;-73
2022/11/08 08:34:42;;;;;;;4.45;1.55;;;11.80;99.90;;;;;;5023426;28;20053;-73
2022/11/08 08:37:08;;;;;;;6.47;1.88;;;11.80;99.90;;;;;;4994324;28;20364;-73
2022/11/08 08:39:34;;;;;;;7.28;1.70;;;11.90;99.90;;;;;;5029697;28;20637;-73
2022/11/08 08:42:00;;;;;;;6.40;2.53;;;11.90;99.90;;;;;;5029813;28;20058;-73
2022/11/08 08:44:26;;;;;;;10.23;1.80;;;11.90;99.90;;;;;;5010836;28;20058;-73
2022/11/08 08:46:51;;;;;;;6.28;1.63;;;12.10;99.90;;;;;;5026516;28;20418;-72
2022/11/08 08:49:17;;;;;;;7.55;1.92;;;12.10;99.90;;;;;;4990858;28;20038;-74
2022/11/08 08:51:43;;;;;;;4.60;1.85;;;12.10;99.90;;;;;;5020793;28;20038;-73
2022/11/08 08:54:09;;;;;;;8.55;2.33;;;12.20;99.90;;;;;;5012038;28;20045;-73
2022/11/08 08:56:34;;;;;;;3.70;1.63;;;12.30;99.90;;;;;;5016626;28;20049;-71
2022/11/08 08:59:00;;;;;;;5.82;2.03;;;12.30;99.90;;;;;;5012250;28;20103;-72
2022/11/08 09:01:26;;;;;;;5.35;1.90;;;12.40;99.90;;;;;;5024805;28;20431;-72
2022/11/08 09:03:51;;;;;;;6.97;1.60;;;12.50;99.90;;;;;;5012562;28;20400;-73
2022/11/08 09:06:17;;;;;;;7.88;2.10;;;12.70;99.90;;;;;;5007901;28;20165;-74
2022/11/08 09:08:43;;;;;;;7.15;1.77;;;12.80;99.90;;;;;;5011630;28;20065;-73
2022/11/08 09:11:08;;;;;;;9.30;1.60;;;13.00;99.90;;;;;;5012113;28;20049;-72
2022/11/08 09:13:34;;;;;;;6.10;1.60;;;13.10;99.90;;;;;;5025100;28;20046;-72
2022/11/08 09:16:01;;;;;;;6.78;1.70;;;13.10;99.90;;;;;;4994123;28;20475;-72
2022/11/08 09:18:27;;;;;;;8.77;1.90;;;13.20;99.90;;;;;;4991489;28;20057;-73
2022/11/08 09:20:57;;;;;;;4.45;1.60;;;13.30;99.90;;;;;;5026807;28;20432;-73
2022/11/08 09:23:22;;;;;;;5.80;2.00;;;13.40;99.90;;;;;;4990947;28;20116;-72
2022/11/08 09:25:48;;;;;;;6.20;1.80;;;13.50;99.90;;;;;;5032181;28;20050;-72
2022/11/08 09:28:14;;;;;;;5.25;1.60;;;13.60;99.90;;;;;;5025910;28;20061;-74
2022/11/08 09:30:39;;;;;;;6.40;1.60;;;13.70;99.90;;;;;;4989682;28;20050;-72
2022/11/08 09:33:06;;;;;;;3.60;1.58;;;13.80;99.90;;;;;;5028136;28;20050;-70
2022/11/08 09:35:32;;;;;;;7.55;1.85;;;13.90;99.90;;;;;;5011502;28;20081;-70
2022/11/08 09:37:58;;;;;;;5.32;1.67;;;13.90;99.90;;;;;;5024189;28;20093;-70
2022/11/08 09:40:38;;;;;;;5.55;1.98;;;13.90;99.90;;;;;;5008327;28;20079;-71
2022/11/08 09:43:16;;;;;;;7.53;1.38;;;13.90;99.90;;;;;;5015030;28;20100;-70
2022/11/08 09:45:45;;;;;;;6.28;1.58;;;14.00;99.90;;;;;;5010694;28;20487;-70
2022/11/08 09:48:36;;;;;;;7.47;1.63;;;14.10;99.90;;;;;;5026317;28;20042;-72
2022/11/08 09:51:08;;;;;;;8.15;1.70;;;14.30;99.90;;;;;;4994152;28;20049;-71
2022/11/08 09:53:48;;;;;;;5.10;1.60;;;14.30;99.90;;;;;;5026061;28;20069;-71
2022/11/08 09:56:30;;;;;;;7.53;1.77;;;14.30;99.90;;;;;;5006746;28;20472;-70
2022/11/08 09:59:00;;;;;;;4.90;1.58;;;14.20;99.90;;;;;;5026418;28;20120;-72
2022/11/08 10:01:32;;;;;;;8.20;1.77;;;14.20;99.90;;;;;;4994795;28;20046;-71
2022/11/08 10:04:04;;;;;;;5.35;1.70;;;14.30;99.90;;;;;;5010354;28;20048;-72
2022/11/08 10:06:35;;;;;;;4.93;1.73;;;14.40;99.90;;;;;;5026291;28;20066;-72
2022/11/08 10:09:10;;;;;;;4.70;1.33;;;14.30;99.90;;;;;;5037339;28;20111;-73
2022/11/08 10:11:58;;;;;;;5.82;1.73;;;14.50;99.90;;;;;;5024776;28;20046;-72
2022/11/08 10:14:39;;;;;;;6.28;1.40;;;14.80;99.90;;;;;;5007646;28;20053;-72
2022/11/08 10:17:12;;;;;;;5.28;1.70;;;15.00;99.90;;;;;;5005154;28;20904;-72
2022/11/08 10:19:59;;;;;;;5.45;1.45;;;15.10;99.90;;;;;;5008302;28;20049;-72
2022/11/08 10:22:51;;;;;;;4.13;1.38;;;15.20;99.90;;;;;;5006619;28;20592;-71
2022/11/08 10:25:26;;;;;;;5.20;1.70;;;15.20;99.90;;;;;;5005869;28;20677;-73
2022/11/08 10:27:53;;;;;;;5.45;1.58;;;15.50;99.90;;;;;;5004642;28;20583;-73
2022/11/08 10:30:20;;;;;;;4.28;1.42;;;15.60;99.90;;;;;;5004029;28;20064;-73
2022/11/08 10:32:55;;;;;;;4.10;1.33;;;15.80;99.90;;;;;;4989619;28;20108;-72
2022/11/08 10:35:44;;;;;;;5.68;1.30;;;15.90;99.80;;;;;;5026056;28;20037;-72
2022/11/08 10:38:17;;;;;;;3.97;1.45;;;15.90;99.50;;;;;;5009451;28;20071;-73
2022/11/08 10:40:56;;;;;;;6.25;1.33;;;15.90;99.60;;;;;;5006871;28;20050;-73
2022/11/08 10:43:42;;;;;;;4.65;1.42;;;15.80;99.30;;;;;;5026387;28;20129;-74
2022/11/08 10:47:09;;;;;;;5.03;1.27;;;15.90;99.50;;;;;;4993521;28;20066;-73
2022/11/08 10:49:41;;;;;;;5.20;1.75;;;16.00;99.90;;;;;;5008601;28;20038;-71
2022/11/08 10:52:10;;;;;;;5.78;1.63;;;16.10;99.60;;;;;;5001595;28;20061;-70
2022/11/08 10:54:54;;;;;;;5.28;1.75;;;16.10;98.80;;;;;;5014428;28;20064;-70
2022/11/08 10:57:32;;;;;;;5.05;1.30;;;16.20;98.10;;;;;;5025637;28;20042;-70
2022/11/08 11:00:15;;;;;;;5.25;1.50;;;16.00;98.60;;;;;;5010877;28;20049;-71
2022/11/08 11:02:41;;;;;;;4.07;1.30;;;16.80;96.40;;;;;;5009191;28;20456;-70
2022/11/08 11:05:20;;;;;;;4.95;1.38;;;17.10;95.80;;;;;;5005978;28;20065;-71
2022/11/08 11:07:52;;;;;;;6.93;1.85;;;17.90;96.10;;;;;;5005526;28;20049;-70
2022/11/08 11:10:24;;;;;;;6.15;1.50;;;18.50;93.80;;;;;;5007254;28;20045;-70
2022/11/08 11:12:52;;;;;;;4.75;1.30;;;19.30;93.10;;;;;;5009400;28;20138;-69
2022/11/08 11:15:17;;;;;;;4.10;1.50;;;19.70;93.80;;;;;;5023042;28;20061;-70
2022/11/08 11:17:44;;;;;;;9.43;1.60;;;20.10;91.40;;;;;;5022786;28;20356;-71
2022/11/08 11:20:21;;;;;;;6.20;1.50;;;19.90;90.50;;;;;;5009896;28;20089;-70
2022/11/08 11:22:46;;;;;;;2.95;1.27;;;19.70;93.20;;;;;;5009080;28;20038;-70
2022/11/08 11:25:14;;;;;;;3.63;0.90;;;20.40;90.00;;;;;;5009016;28;20057;-70
2022/11/08 11:27:40;;;;;;;3.30;1.20;;;19.30;86.30;;;;;;5025514;28;20137;-70
2022/11/08 11:30:21;;;;;;;4.55;1.30;;;19.30;82.50;;;;;;5009308;28;20125;-70
2022/11/08 11:32:58;;;;;;;4.70;1.00;;;19.40;83.20;;;;;;4999566;28;20125;-71
2022/11/08 11:35:52;;;;;;;4.68;1.25;;;19.20;84.30;;;;;;4992300;28;20081;-70
2022/11/08 11:38:27;;;;;;;3.58;1.38;;;19.10;82.10;;;;;;5010019;28;20447;-70
2022/11/08 11:40:53;;;;;;;8.30;1.58;;;18.80;84.20;;;;;;4994179;28;20089;-70
2022/11/08 11:43:59;;;;;;;3.15;0.80;;;18.80;84.60;;;;;;4994250;28;20622;-71
2022/11/08 11:46:56;;;;;;;4.88;1.27;;;18.60;82.90;;;;;;4985837;28;20065;-71
2022/11/08 11:49:22;;;;;;;3.30;1.25;;;18.70;82.80;;;;;;5010527;28;20048;-73
2022/11/08 11:51:51;;;;;;;3.83;0.80;;;18.40;82.60;;;;;;4993819;28;20655;-74
2022/11/08 11:54:17;;;;;;;3.15;0.95;;;18.40;83.30;;;;;;5028013;28;20052;-74
2022/11/08 11:57:05;;;;;;;2.75;1.10;;;18.40;84.00;;;;;;5008847;28;20648;-73
2022/11/08 11:59:37;;;;;;;;;;;18.40;83.20;;;;;;5008682;28;20053;-75
2022/11/08 12:02:33;;;;;;;4.05;1.40;;;17.80;82.80;;;;;;5014095;28;20255;-74
2022/11/08 12:05:17;;;;;;;2.72;1.10;;;17.90;84.00;;;;;;5008803;28;20510;-72
2022/11/08 12:08:06;;;;;;;2.25;0.88;;;17.90;84.30;;;;;;4998122;28;20049;-72
2022/11/08 12:10:50;;;;;;;3.03;1.00;;;18.00;84.60;;;;;;5011271;28;20521;-74
2022/11/08 12:13:22;;;;;;;3.13;1.02;;;18.20;84.40;;;;;;5012871;28;20072;-75
2022/11/08 12:16:03;;;;;;;2.42;1.00;;;18.50;82.30;;;;;;5029245;28;20045;-73
2022/11/08 12:18:40;;;;;;;1.77;0.98;;;18.70;84.00;;;;;;5012480;28;20054;-74
2022/11/08 12:21:26;;;;;;;2.58;0.95;;;18.90;82.00;;;;;;5028749;28;20149;-72
2022/11/08 12:24:04;;;;;;;2.88;1.10;;;19.00;82.50;;;;;;4994294;28;20499;-72
2022/11/08 12:26:48;;;;;;;2.10;0.90;;;19.00;80.20;;;;;;5012276;28;20065;-74
2022/11/08 12:29:39;;;;;;;3.30;1.10;;;18.90;77.90;;;;;;5039569;28;20053;-73
2022/11/08 12:32:28;;;;;;;2.47;0.82;;;19.00;79.00;;;;;;5027192;28;20038;-74
2022/11/08 12:35:19;;;;;;;2.88;1.10;;;18.70;80.10;;;;;;5008365;28;20042;-74
2022/11/08 12:38:04;;;;;;;1.92;0.80;;;18.70;78.80;;;;;;5010295;28;20854;-73
2022/11/08 12:40:38;;;;;;;3.55;1.10;;;18.40;80.40;;;;;;5041282;28;20050;-73
2022/11/08 12:43:16;;;;;;;3.60;1.00;;;18.20;80.20;;;;;;5012027;28;20050;-74
2022/11/08 12:45:56;;;;;;;3.58;1.02;;;18.20;81.10;;;;;;5027897;28;20064;-73
2022/11/08 12:48:31;;;;;;;2.95;1.02;;;18.10;81.80;;;;;;5011825;28;20057;-72
2022/11/08 12:50:59;;;;;;;5.68;1.10;;;18.00;82.00;;;;;;5014839;28;20046;-73
2022/11/08 12:53:25;;;;;;;;;;;17.80;81.10;;;;;;5012332;28;20046;-76
2022/11/08 12:55:54;;;;;;;1.88;0.88;;;17.70;82.20;;;;;;4995366;28;20267;-73
2022/11/08 12:58:36;;;;;;;5.88;0.80;;;17.70;82.40;;;;;;5012310;28;20115;-72
2022/11/08 13:01:05;;;;;;;2.10;0.70;;;17.60;82.30;;;;;;5024451;28;20054;-76
2022/11/08 13:03:45;;;;;;;6.45;1.00;;;17.60;81.70;;;;;;5011203;28;20046;-73
2022/11/08 13:06:42;;;;;;;10.93;1.30;;;17.60;82.10;;;;;;5011486;28;20479;-73
2022/11/08 13:09:11;;;;;;;20.98;1.73;;;17.50;80.70;;;;;;5028827;28;20057;-73
2022/11/08 13:11:58;;;;;;;3.92;1.13;;;17.50;81.90;;;;;;5011958;28;20045;-73
2022/11/08 13:14:24;;;;;;;2.58;1.30;;;17.60;79.00;;;;;;5009382;28;20077;-72
2022/11/08 13:17:12;;;;;;;2.47;1.05;;;17.60;79.80;;;;;;5023848;28;20484;-73
2022/11/08 13:19:47;;;;;;;3.17;0.82;;;17.50;80.00;;;;;;5042822;28;20500;-73